sensor_id;sensor_type;location;lat;lon;timestamp;P1;durP1;ratioP1;P2;durP2;ratioP2
32407;SDS011;18869;55.970;37.502;2022-09-09T00:00:01;4.33;;;3.93;;
32407;SDS011;18869;55.970;37.502;2022-09-09T00:02:33;4.57;;;4.17;;
32407;SDS011;18869;55.970;37.502;2022-09-09T00:05:08;4.40;;;4.10;;
32407;SDS011;18869;55.970;37.502;2022-09-09T00:07:43;5.43;;;4.27;;
32407;SDS011;18869;55.970;37.502;2022-09-09T00:10:16;5.67;;;4.57;;
32407;SDS011;18869;55.970;37.502;2022-09-09T00:12:48;5.13;;;4.30;;
32407;SDS011;18869;55.970;37.502;2022-09-09T00:15:22;4.10;;;3.80;;
32407;SDS011;18869;55.970;37.502;2022-09-09T00:17:55;8.03;;;3.77;;
32407;SDS011;18869;55.970;37.502;2022-09-09T00:20:26;4.30;;;3.90;;
32407;SDS011;18869;55.970;37.502;2022-09-09T00:23:00;4.80;;;4.40;;
32407;SDS011;18869;55.970;37.502;2022-09-09T00:25:33;8.97;;;3.90;;
32407;SDS011;18869;55.970;37.502;2022-09-09T00:28:07;5.23;;;3.97;;
32407;SDS011;18869;55.970;37.502;2022-09-09T00:30:41;4.07;;;3.77;;
32407;SDS011;18869;55.970;37.502;2022-09-09T00:33:11;4.47;;;4.07;;
32407;SDS011;18869;55.970;37.502;2022-09-09T00:35:42;4.53;;;4.17;;
32407;SDS011;18869;55.970;37.502;2022-09-09T00:38:13;5.80;;;4.13;;
32407;SDS011;18869;55.970;37.502;2022-09-09T00:40:45;4.50;;;4.20;;
32407;SDS011;18869;55.970;37.502;2022-09-09T00:43:24;4.00;;;3.70;;
32407;SDS011;18869;55.970;37.502;2022-09-09T00:46:18;4.50;;;4.17;;
32407;SDS011;18869;55.970;37.502;2022-09-09T00:48:54;3.83;;;3.63;;
32407;SDS011;18869;55.970;37.502;2022-09-09T00:51:33;3.77;;;3.57;;
32407;SDS011;18869;55.970;37.502;2022-09-09T00:54:13;3.83;;;3.53;;
32407;SDS011;18869;55.970;37.502;2022-09-09T00:56:52;4.83;;;3.67;;
32407;SDS011;18869;55.970;37.502;2022-09-09T00:59:27;4.00;;;3.70;;
32407;SDS011;18869;55.970;37.502;2022-09-09T01:01:56;3.90;;;3.70;;
32407;SDS011;18869;55.970;37.502;2022-09-09T01:04:26;4.13;;;3.83;;
32407;SDS011;18869;55.970;37.502;2022-09-09T01:07:00;4.20;;;3.90;;
32407;SDS011;18869;55.970;37.502;2022-09-09T01:09:32;3.77;;;3.47;;
32407;SDS011;18869;55.970;37.502;2022-09-09T01:12:09;4.67;;;3.50;;
32407;SDS011;18869;55.970;37.502;2022-09-09T01:14:42;4.50;;;4.10;;
32407;SDS011;18869;55.970;37.502;2022-09-09T01:17:17;4.10;;;3.80;;
32407;SDS011;18869;55.970;37.502;2022-09-09T01:20:02;5.07;;;4.20;;
32407;SDS011;18869;55.970;37.502;2022-09-09T01:22:36;5.73;;;3.67;;
32407;SDS011;18869;55.970;37.502;2022-09-09T01:25:16;4.13;;;3.83;;
32407;SDS011;18869;55.970;37.502;2022-09-09T01:27:54;4.30;;;3.70;;
32407;SDS011;18869;55.970;37.502;2022-09-09T01:30:23;3.63;;;3.33;;
32407;SDS011;18869;55.970;37.502;2022-09-09T01:32:53;3.47;;;3.27;;
32407;SDS011;18869;55.970;37.502;2022-09-09T01:35:29;3.83;;;3.57;;
32407;SDS011;18869;55.970;37.502;2022-09-09T01:38:02;4.00;;;3.70;;
32407;SDS011;18869;55.970;37.502;2022-09-09T01:40:30;3.73;;;3.53;;
32407;SDS011;18869;55.970;37.502;2022-09-09T01:42:59;4.37;;;4.00;;
32407;SDS011;18869;55.970;37.502;2022-09-09T01:45:27;5.47;;;4.07;;
32407;SDS011;18869;55.970;37.502;2022-09-09T01:47:55;4.57;;;3.63;;
32407;SDS011;18869;55.970;37.502;2022-09-09T01:50:23;3.20;;;3.00;;
32407;SDS011;18869;55.970;37.502;2022-09-09T01:52:53;3.60;;;3.30;;
32407;SDS011;18869;55.970;37.502;2022-09-09T01:55:28;4.13;;;3.83;;
32407;SDS011;18869;55.970;37.502;2022-09-09T01:58:03;4.07;;;3.67;;
32407;SDS011;18869;55.970;37.502;2022-09-09T02:00:41;4.20;;;3.60;;
32407;SDS011;18869;55.970;37.502;2022-09-09T02:03:14;5.20;;;3.70;;
32407;SDS011;18869;55.970;37.502;2022-09-09T02:05:49;4.00;;;3.70;;
32407;SDS011;18869;55.970;37.502;2022-09-09T02:08:23;4.50;;;4.13;;
32407;SDS011;18869;55.970;37.502;2022-09-09T02:11:01;3.97;;;3.60;;
32407;SDS011;18869;55.970;37.502;2022-09-09T02:13:36;3.70;;;3.47;;
32407;SDS011;18869;55.970;37.502;2022-09-09T02:16:07;4.30;;;3.93;;
32407;SDS011;18869;55.970;37.502;2022-09-09T02:18:36;4.23;;;3.83;;
32407;SDS011;18869;55.970;37.502;2022-09-09T02:21:08;4.30;;;3.90;;
32407;SDS011;18869;55.970;37.502;2022-09-09T02:23:37;4.03;;;3.73;;
32407;SDS011;18869;55.970;37.502;2022-09-09T02:26:07;5.03;;;3.60;;
32407;SDS011;18869;55.970;37.502;2022-09-09T02:28:38;3.80;;;3.57;;
32407;SDS011;18869;55.970;37.502;2022-09-09T02:31:09;9.93;;;5.03;;
32407;SDS011;18869;55.970;37.502;2022-09-09T02:33:38;7.33;;;4.20;;
32407;SDS011;18869;55.970;37.502;2022-09-09T02:36:08;10.77;;;4.07;;
32407;SDS011;18869;55.970;37.502;2022-09-09T02:38:40;4.40;;;4.00;;
32407;SDS011;18869;55.970;37.502;2022-09-09T02:41:10;4.77;;;4.37;;
32407;SDS011;18869;55.970;37.502;2022-09-09T02:43:40;5.00;;;3.77;;
32407;SDS011;18869;55.970;37.502;2022-09-09T02:46:20;3.77;;;3.47;;
32407;SDS011;18869;55.970;37.502;2022-09-09T02:48:58;5.40;;;4.23;;
32407;SDS011;18869;55.970;37.502;2022-09-09T02:51:30;4.80;;;4.40;;
32407;SDS011;18869;55.970;37.502;2022-09-09T02:54:04;4.37;;;4.07;;
32407;SDS011;18869;55.970;37.502;2022-09-09T02:56:40;5.13;;;4.13;;
32407;SDS011;18869;55.970;37.502;2022-09-09T02:59:13;5.03;;;3.77;;
32407;SDS011;18869;55.970;37.502;2022-09-09T03:01:41;7.13;;;4.40;;
32407;SDS011;18869;55.970;37.502;2022-09-09T03:04:09;7.77;;;3.80;;
32407;SDS011;18869;55.970;37.502;2022-09-09T03:06:38;3.70;;;3.50;;
32407;SDS011;18869;55.970;37.502;2022-09-09T03:09:06;4.40;;;3.97;;
32407;SDS011;18869;55.970;37.502;2022-09-09T03:11:37;4.87;;;3.90;;
32407;SDS011;18869;55.970;37.502;2022-09-09T03:14:05;5.17;;;4.67;;
32407;SDS011;18869;55.970;37.502;2022-09-09T03:16:36;4.10;;;3.80;;
32407;SDS011;18869;55.970;37.502;2022-09-09T03:19:03;5.00;;;3.60;;
32407;SDS011;18869;55.970;37.502;2022-09-09T03:21:31;4.03;;;3.73;;
32407;SDS011;18869;55.970;37.502;2022-09-09T03:23:59;4.77;;;4.37;;
32407;SDS011;18869;55.970;37.502;2022-09-09T03:26:29;4.33;;;3.97;;
32407;SDS011;18869;55.970;37.502;2022-09-09T03:28:57;4.80;;;4.17;;
32407;SDS011;18869;55.970;37.502;2022-09-09T03:31:27;3.93;;;3.63;;
32407;SDS011;18869;55.970;37.502;2022-09-09T03:33:57;5.13;;;4.07;;
32407;SDS011;18869;55.970;37.502;2022-09-09T03:36:25;7.23;;;5.07;;
32407;SDS011;18869;55.970;37.502;2022-09-09T03:38:54;4.50;;;4.20;;
32407;SDS011;18869;55.970;37.502;2022-09-09T03:41:22;4.33;;;3.93;;
32407;SDS011;18869;55.970;37.502;2022-09-09T03:43:50;4.73;;;4.33;;
32407;SDS011;18869;55.970;37.502;2022-09-09T03:46:19;3.77;;;3.47;;
32407;SDS011;18869;55.970;37.502;2022-09-09T03:48:46;4.60;;;4.27;;
32407;SDS011;18869;55.970;37.502;2022-09-09T03:51:15;4.27;;;3.90;;
32407;SDS011;18869;55.970;37.502;2022-09-09T03:53:44;4.20;;;3.90;;
32407;SDS011;18869;55.970;37.502;2022-09-09T03:56:12;4.83;;;4.40;;
32407;SDS011;18869;55.970;37.502;2022-09-09T03:58:39;4.73;;;4.17;;
32407;SDS011;18869;55.970;37.502;2022-09-09T04:01:12;4.23;;;3.57;;
32407;SDS011;18869;55.970;37.502;2022-09-09T04:03:40;4.23;;;3.93;;
32407;SDS011;18869;55.970;37.502;2022-09-09T04:06:09;4.00;;;3.70;;
32407;SDS011;18869;55.970;37.502;2022-09-09T04:08:39;4.90;;;3.80;;
32407;SDS011;18869;55.970;37.502;2022-09-09T04:11:08;4.60;;;4.23;;
32407;SDS011;18869;55.970;37.502;2022-09-09T04:13:37;4.13;;;3.83;;
32407;SDS011;18869;55.970;37.502;2022-09-09T04:16:06;4.00;;;3.70;;
32407;SDS011;18869;55.970;37.502;2022-09-09T04:18:35;8.73;;;4.23;;
32407;SDS011;18869;55.970;37.502;2022-09-09T04:21:03;3.87;;;3.57;;
32407;SDS011;18869;55.970;37.502;2022-09-09T04:23:32;4.07;;;3.30;;
32407;SDS011;18869;55.970;37.502;2022-09-09T04:26:02;3.93;;;3.60;;
32407;SDS011;18869;55.970;37.502;2022-09-09T04:28:31;3.77;;;3.10;;
32407;SDS011;18869;55.970;37.502;2022-09-09T04:31:03;3.70;;;3.40;;
32407;SDS011;18869;55.970;37.502;2022-09-09T04:33:32;3.57;;;3.30;;
32407;SDS011;18869;55.970;37.502;2022-09-09T04:36:01;3.43;;;3.17;;
32407;SDS011;18869;55.970;37.502;2022-09-09T04:38:29;3.30;;;3.10;;
32407;SDS011;18869;55.970;37.502;2022-09-09T04:40:56;3.77;;;3.30;;
32407;SDS011;18869;55.970;37.502;2022-09-09T04:43:26;3.17;;;2.97;;
32407;SDS011;18869;55.970;37.502;2022-09-09T04:45:54;3.13;;;2.83;;
32407;SDS011;18869;55.970;37.502;2022-09-09T04:48:21;3.50;;;3.23;;
32407;SDS011;18869;55.970;37.502;2022-09-09T04:50:54;3.30;;;3.10;;
32407;SDS011;18869;55.970;37.502;2022-09-09T04:53:23;3.03;;;2.60;;
32407;SDS011;18869;55.970;37.502;2022-09-09T04:55:52;3.63;;;3.43;;
32407;SDS011;18869;55.970;37.502;2022-09-09T04:58:20;3.20;;;2.90;;
32407;SDS011;18869;55.970;37.502;2022-09-09T05:00:51;3.80;;;3.50;;
32407;SDS011;18869;55.970;37.502;2022-09-09T05:03:20;2.93;;;2.70;;
32407;SDS011;18869;55.970;37.502;2022-09-09T05:05:47;2.67;;;2.47;;
32407;SDS011;18869;55.970;37.502;2022-09-09T05:08:15;2.67;;;2.43;;
32407;SDS011;18869;55.970;37.502;2022-09-09T05:10:43;2.30;;;2.10;;
32407;SDS011;18869;55.970;37.502;2022-09-09T05:13:11;2.30;;;2.13;;
32407;SDS011;18869;55.970;37.502;2022-09-09T05:15:39;2.43;;;2.23;;
32407;SDS011;18869;55.970;37.502;2022-09-09T05:18:10;4.20;;;1.90;;
32407;SDS011;18869;55.970;37.502;2022-09-09T05:20:38;1.97;;;1.87;;
32407;SDS011;18869;55.970;37.502;2022-09-09T05:23:08;1.80;;;1.70;;
32407;SDS011;18869;55.970;37.502;2022-09-09T05:25:37;1.60;;;1.50;;
32407;SDS011;18869;55.970;37.502;2022-09-09T05:28:05;1.40;;;1.30;;
32407;SDS011;18869;55.970;37.502;2022-09-09T05:30:33;0.90;;;0.90;;
32407;SDS011;18869;55.970;37.502;2022-09-09T05:33:04;1.27;;;0.93;;
32407;SDS011;18869;55.970;37.502;2022-09-09T05:35:35;1.37;;;0.93;;
32407;SDS011;18869;55.970;37.502;2022-09-09T05:38:04;1.43;;;0.90;;
32407;SDS011;18869;55.970;37.502;2022-09-09T05:40:33;2.97;;;1.00;;
32407;SDS011;18869;55.970;37.502;2022-09-09T05:43:00;0.80;;;0.80;;
32407;SDS011;18869;55.970;37.502;2022-09-09T05:45:29;1.43;;;0.90;;
32407;SDS011;18869;55.970;37.502;2022-09-09T05:47:56;1.10;;;0.77;;
32407;SDS011;18869;55.970;37.502;2022-09-09T05:50:25;0.80;;;0.73;;
32407;SDS011;18869;55.970;37.502;2022-09-09T05:52:56;2.70;;;0.60;;
32407;SDS011;18869;55.970;37.502;2022-09-09T05:55:25;0.98;;;0.55;;
32407;SDS011;18869;55.970;37.502;2022-09-09T05:57:52;0.70;;;0.50;;
32407;SDS011;18869;55.970;37.502;2022-09-09T06:00:20;0.60;;;0.60;;
32407;SDS011;18869;55.970;37.502;2022-09-09T06:02:50;0.65;;;0.50;;
32407;SDS011;18869;55.970;37.502;2022-09-09T06:05:19;1.67;;;0.65;;
32407;SDS011;18869;55.970;37.502;2022-09-09T06:07:51;2.08;;;0.60;;
32407;SDS011;18869;55.970;37.502;2022-09-09T06:10:20;0.40;;;0.40;;
32407;SDS011;18869;55.970;37.502;2022-09-09T06:12:52;1.00;;;0.90;;
32407;SDS011;18869;55.970;37.502;2022-09-09T06:15:20;0.70;;;0.70;;
32407;SDS011;18869;55.970;37.502;2022-09-09T06:17:53;1.27;;;0.73;;
32407;SDS011;18869;55.970;37.502;2022-09-09T06:20:22;0.90;;;0.73;;
32407;SDS011;18869;55.970;37.502;2022-09-09T06:22:50;1.25;;;1.00;;
32407;SDS011;18869;55.970;37.502;2022-09-09T06:25:20;1.08;;;0.93;;
32407;SDS011;18869;55.970;37.502;2022-09-09T06:27:49;1.23;;;0.73;;
32407;SDS011;18869;55.970;37.502;2022-09-09T06:30:17;1.27;;;1.12;;
32407;SDS011;18869;55.970;37.502;2022-09-09T06:32:45;0.95;;;0.88;;
32407;SDS011;18869;55.970;37.502;2022-09-09T06:35:14;1.73;;;0.88;;
32407;SDS011;18869;55.970;37.502;2022-09-09T06:37:44;2.72;;;1.30;;
32407;SDS011;18869;55.970;37.502;2022-09-09T06:40:15;1.05;;;0.95;;
32407;SDS011;18869;55.970;37.502;2022-09-09T06:42:45;2.28;;;2.08;;
32407;SDS011;18869;55.970;37.502;2022-09-09T06:45:18;1.62;;;1.40;;
32407;SDS011;18869;55.970;37.502;2022-09-09T06:47:46;2.22;;;1.00;;
32407;SDS011;18869;55.970;37.502;2022-09-09T06:50:15;0.82;;;0.70;;
32407;SDS011;18869;55.970;37.502;2022-09-09T06:52:45;1.70;;;0.93;;
32407;SDS011;18869;55.970;37.502;2022-09-09T06:55:13;0.93;;;0.93;;
32407;SDS011;18869;55.970;37.502;2022-09-09T06:57:45;1.48;;;1.10;;
32407;SDS011;18869;55.970;37.502;2022-09-09T07:00:14;1.02;;;0.93;;
32407;SDS011;18869;55.970;37.502;2022-09-09T07:02:42;1.37;;;0.65;;
32407;SDS011;18869;55.970;37.502;2022-09-09T07:05:11;0.80;;;0.70;;
32407;SDS011;18869;55.970;37.502;2022-09-09T07:07:41;1.58;;;0.70;;
32407;SDS011;18869;55.970;37.502;2022-09-09T07:10:09;0.68;;;0.65;;
32407;SDS011;18869;55.970;37.502;2022-09-09T07:12:37;1.15;;;0.85;;
32407;SDS011;18869;55.970;37.502;2022-09-09T07:15:09;0.60;;;0.60;;
32407;SDS011;18869;55.970;37.502;2022-09-09T07:17:39;0.50;;;0.50;;
32407;SDS011;18869;55.970;37.502;2022-09-09T07:20:07;0.73;;;0.50;;
32407;SDS011;18869;55.970;37.502;2022-09-09T07:22:35;0.70;;;0.60;;
32407;SDS011;18869;55.970;37.502;2022-09-09T07:25:04;1.33;;;0.50;;
32407;SDS011;18869;55.970;37.502;2022-09-09T07:27:33;1.27;;;0.60;;
32407;SDS011;18869;55.970;37.502;2022-09-09T07:30:00;0.60;;;0.50;;
32407;SDS011;18869;55.970;37.502;2022-09-09T07:32:33;0.57;;;0.57;;
32407;SDS011;18869;55.970;37.502;2022-09-09T07:35:00;0.70;;;0.60;;
32407;SDS011;18869;55.970;37.502;2022-09-09T07:37:29;0.40;;;0.40;;
32407;SDS011;18869;55.970;37.502;2022-09-09T07:39:57;0.60;;;0.60;;
32407;SDS011;18869;55.970;37.502;2022-09-09T07:42:25;2.67;;;0.40;;
32407;SDS011;18869;55.970;37.502;2022-09-09T07:44:55;2.37;;;0.80;;
32407;SDS011;18869;55.970;37.502;2022-09-09T07:47:23;0.60;;;0.60;;
32407;SDS011;18869;55.970;37.502;2022-09-09T07:49:51;0.90;;;0.80;;
32407;SDS011;18869;55.970;37.502;2022-09-09T07:52:20;1.87;;;0.88;;
32407;SDS011;18869;55.970;37.502;2022-09-09T07:54:48;0.80;;;0.35;;
32407;SDS011;18869;55.970;37.502;2022-09-09T07:57:19;0.95;;;0.70;;
32407;SDS011;18869;55.970;37.502;2022-09-09T07:59:47;1.27;;;0.75;;
32407;SDS011;18869;55.970;37.502;2022-09-09T08:02:15;0.77;;;0.65;;
32407;SDS011;18869;55.970;37.502;2022-09-09T08:04:43;1.40;;;0.77;;
32407;SDS011;18869;55.970;37.502;2022-09-09T08:07:14;0.60;;;0.60;;
32407;SDS011;18869;55.970;37.502;2022-09-09T08:09:41;0.77;;;0.73;;
32407;SDS011;18869;55.970;37.502;2022-09-09T08:12:10;1.07;;;0.97;;
32407;SDS011;18869;55.970;37.502;2022-09-09T08:14:38;1.27;;;1.10;;
32407;SDS011;18869;55.970;37.502;2022-09-09T08:17:06;1.83;;;1.07;;
32407;SDS011;18869;55.970;37.502;2022-09-09T08:19:36;2.30;;;1.50;;
32407;SDS011;18869;55.970;37.502;2022-09-09T08:22:04;2.00;;;1.80;;
32407;SDS011;18869;55.970;37.502;2022-09-09T08:24:35;3.73;;;2.20;;
32407;SDS011;18869;55.970;37.502;2022-09-09T08:27:03;5.23;;;2.10;;
32407;SDS011;18869;55.970;37.502;2022-09-09T08:29:32;2.73;;;1.47;;
32407;SDS011;18869;55.970;37.502;2022-09-09T08:32:01;1.23;;;1.13;;
32407;SDS011;18869;55.970;37.502;2022-09-09T08:34:30;0.90;;;0.80;;
32407;SDS011;18869;55.970;37.502;2022-09-09T08:36:58;0.93;;;0.70;;
32407;SDS011;18869;55.970;37.502;2022-09-09T08:39:27;1.47;;;0.67;;
32407;SDS011;18869;55.970;37.502;2022-09-09T08:42:06;1.70;;;0.40;;
32407;SDS011;18869;55.970;37.502;2022-09-09T08:44:56;0.40;;;0.40;;
32407;SDS011;18869;55.970;37.502;2022-09-09T08:47:33;0.50;;;0.50;;
32407;SDS011;18869;55.970;37.502;2022-09-09T08:50:16;0.32;;;0.32;;
32407;SDS011;18869;55.970;37.502;2022-09-09T08:52:59;2.28;;;0.55;;
32407;SDS011;18869;55.970;37.502;2022-09-09T08:55:37;0.60;;;0.50;;
32407;SDS011;18869;55.970;37.502;2022-09-09T08:58:14;1.12;;;0.50;;
32407;SDS011;18869;55.970;37.502;2022-09-09T09:00:52;0.50;;;0.50;;
32407;SDS011;18869;55.970;37.502;2022-09-09T09:03:28;0.40;;;0.40;;
32407;SDS011;18869;55.970;37.502;2022-09-09T09:06:01;0.90;;;0.80;;
32407;SDS011;18869;55.970;37.502;2022-09-09T09:08:36;1.90;;;0.95;;
32407;SDS011;18869;55.970;37.502;2022-09-09T09:11:09;0.50;;;0.50;;
32407;SDS011;18869;55.970;37.502;2022-09-09T09:13:43;0.65;;;0.40;;
32407;SDS011;18869;55.970;37.502;2022-09-09T09:16:18;1.83;;;0.50;;
32407;SDS011;18869;55.970;37.502;2022-09-09T09:18:49;1.17;;;0.40;;
32407;SDS011;18869;55.970;37.502;2022-09-09T09:21:19;0.85;;;0.30;;
32407;SDS011;18869;55.970;37.502;2022-09-09T09:23:53;0.50;;;0.40;;
32407;SDS011;18869;55.970;37.502;2022-09-09T09:26:24;0.50;;;0.50;;
32407;SDS011;18869;55.970;37.502;2022-09-09T09:28:56;0.80;;;0.50;;
32407;SDS011;18869;55.970;37.502;2022-09-09T09:31:27;0.50;;;0.40;;
32407;SDS011;18869;55.970;37.502;2022-09-09T09:33:55;0.63;;;0.40;;
32407;SDS011;18869;55.970;37.502;2022-09-09T09:36:25;0.73;;;0.60;;
32407;SDS011;18869;55.970;37.502;2022-09-09T09:39:03;0.97;;;0.83;;
32407;SDS011;18869;55.970;37.502;2022-09-09T09:41:32;2.73;;;1.17;;
32407;SDS011;18869;55.970;37.502;2022-09-09T09:44:04;1.37;;;0.83;;
32407;SDS011;18869;55.970;37.502;2022-09-09T09:46:33;1.33;;;0.87;;
32407;SDS011;18869;55.970;37.502;2022-09-09T09:49:02;1.27;;;0.60;;
32407;SDS011;18869;55.970;37.502;2022-09-09T09:51:32;1.43;;;0.50;;
32407;SDS011;18869;55.970;37.502;2022-09-09T09:54:07;0.50;;;0.50;;
32407;SDS011;18869;55.970;37.502;2022-09-09T09:56:45;0.43;;;0.43;;
32407;SDS011;18869;55.970;37.502;2022-09-09T09:59:23;0.77;;;0.47;;
32407;SDS011;18869;55.970;37.502;2022-09-09T10:04:45;0.65;;;0.60;;
32407;SDS011;18869;55.970;37.502;2022-09-09T10:07:16;0.60;;;0.60;;
32407;SDS011;18869;55.970;37.502;2022-09-09T10:09:46;0.50;;;0.50;;
32407;SDS011;18869;55.970;37.502;2022-09-09T10:12:19;1.15;;;0.60;;
32407;SDS011;18869;55.970;37.502;2022-09-09T10:14:57;0.65;;;0.50;;
32407;SDS011;18869;55.970;37.502;2022-09-09T10:17:36;0.68;;;0.57;;
32407;SDS011;18869;55.970;37.502;2022-09-09T10:20:21;0.43;;;0.43;;
32407;SDS011;18869;55.970;37.502;2022-09-09T10:22:58;0.62;;;0.50;;
32407;SDS011;18869;55.970;37.502;2022-09-09T10:25:52;0.70;;;0.70;;
32407;SDS011;18869;55.970;37.502;2022-09-09T10:28:39;1.37;;;1.10;;
32407;SDS011;18869;55.970;37.502;2022-09-09T10:31:19;1.00;;;0.90;;
32407;SDS011;18869;55.970;37.502;2022-09-09T10:33:51;1.07;;;0.90;;
32407;SDS011;18869;55.970;37.502;2022-09-09T10:36:24;1.73;;;1.13;;
32407;SDS011;18869;55.970;37.502;2022-09-09T10:38:57;0.90;;;0.90;;
32407;SDS011;18869;55.970;37.502;2022-09-09T10:41:32;0.97;;;0.90;;
32407;SDS011;18869;55.970;37.502;2022-09-09T10:44:14;0.70;;;0.70;;
32407;SDS011;18869;55.970;37.502;2022-09-09T10:46:51;0.97;;;0.60;;
32407;SDS011;18869;55.970;37.502;2022-09-09T10:49:46;0.60;;;0.60;;
32407;SDS011;18869;55.970;37.502;2022-09-09T10:52:27;1.17;;;0.70;;
32407;SDS011;18869;55.970;37.502;2022-09-09T10:54:59;0.60;;;0.60;;
32407;SDS011;18869;55.970;37.502;2022-09-09T10:57:31;0.47;;;0.47;;
32407;SDS011;18869;55.970;37.502;2022-09-09T11:00:03;0.73;;;0.60;;
32407;SDS011;18869;55.970;37.502;2022-09-09T11:02:34;0.60;;;0.40;;
32407;SDS011;18869;55.970;37.502;2022-09-09T11:05:04;0.70;;;0.60;;
32407;SDS011;18869;55.970;37.502;2022-09-09T11:07:37;1.27;;;0.83;;
32407;SDS011;18869;55.970;37.502;2022-09-09T11:10:14;1.63;;;1.00;;
32407;SDS011;18869;55.970;37.502;2022-09-09T11:12:45;1.47;;;0.97;;
32407;SDS011;18869;55.970;37.502;2022-09-09T11:15:17;2.80;;;0.90;;
32407;SDS011;18869;55.970;37.502;2022-09-09T11:17:50;0.73;;;0.73;;
32407;SDS011;18869;55.970;37.502;2022-09-09T11:20:20;0.90;;;0.90;;
32407;SDS011;18869;55.970;37.502;2022-09-09T11:22:50;4.47;;;0.83;;
32407;SDS011;18869;55.970;37.502;2022-09-09T11:25:20;1.50;;;0.90;;
32407;SDS011;18869;55.970;37.502;2022-09-09T11:27:53;0.83;;;0.80;;
32407;SDS011;18869;55.970;37.502;2022-09-09T11:30:28;1.77;;;0.90;;
32407;SDS011;18869;55.970;37.502;2022-09-09T11:33:09;0.67;;;0.67;;
32407;SDS011;18869;55.970;37.502;2022-09-09T11:35:52;1.80;;;1.10;;
32407;SDS011;18869;55.970;37.502;2022-09-09T11:38:29;0.80;;;0.80;;
32407;SDS011;18869;55.970;37.502;2022-09-09T11:41:02;1.93;;;1.00;;
32407;SDS011;18869;55.970;37.502;2022-09-09T11:43:34;1.67;;;1.10;;
32407;SDS011;18869;55.970;37.502;2022-09-09T11:46:06;0.90;;;0.90;;
32407;SDS011;18869;55.970;37.502;2022-09-09T11:48:37;1.27;;;1.10;;
32407;SDS011;18869;55.970;37.502;2022-09-09T11:51:06;0.90;;;0.90;;
32407;SDS011;18869;55.970;37.502;2022-09-09T11:53:36;0.90;;;0.90;;
32407;SDS011;18869;55.970;37.502;2022-09-09T11:56:22;1.13;;;0.83;;
32407;SDS011;18869;55.970;37.502;2022-09-09T11:58:54;0.80;;;0.80;;
32407;SDS011;18869;55.970;37.502;2022-09-09T12:04:21;2.63;;;0.80;;
32407;SDS011;18869;55.970;37.502;2022-09-09T12:06:56;1.03;;;0.93;;
32407;SDS011;18869;55.970;37.502;2022-09-09T12:12:23;1.40;;;0.90;;
32407;SDS011;18869;55.970;37.502;2022-09-09T12:17:49;1.73;;;1.40;;
32407;SDS011;18869;55.970;37.502;2022-09-09T12:20:21;1.23;;;1.13;;
32407;SDS011;18869;55.970;37.502;2022-09-09T12:23:03;1.77;;;1.37;;
32407;SDS011;18869;55.970;37.502;2022-09-09T12:25:46;2.50;;;1.40;;
32407;SDS011;18869;55.970;37.502;2022-09-09T12:28:41;1.87;;;1.40;;
32407;SDS011;18869;55.970;37.502;2022-09-09T12:31:17;1.30;;;1.20;;
32407;SDS011;18869;55.970;37.502;2022-09-09T12:33:48;1.97;;;1.30;;
32407;SDS011;18869;55.970;37.502;2022-09-09T12:36:23;1.00;;;1.00;;
32407;SDS011;18869;55.970;37.502;2022-09-09T12:38:52;1.33;;;1.23;;
32407;SDS011;18869;55.970;37.502;2022-09-09T12:41:21;1.23;;;1.10;;
32407;SDS011;18869;55.970;37.502;2022-09-09T12:43:50;1.20;;;1.10;;
32407;SDS011;18869;55.970;37.502;2022-09-09T12:46:21;1.30;;;1.20;;
32407;SDS011;18869;55.970;37.502;2022-09-09T12:48:53;1.60;;;1.40;;
32407;SDS011;18869;55.970;37.502;2022-09-09T12:51:23;3.07;;;1.90;;
32407;SDS011;18869;55.970;37.502;2022-09-09T12:53:53;1.90;;;1.80;;
32407;SDS011;18869;55.970;37.502;2022-09-09T12:56:22;2.40;;;2.20;;
32407;SDS011;18869;55.970;37.502;2022-09-09T12:58:52;1.83;;;1.70;;
32407;SDS011;18869;55.970;37.502;2022-09-09T13:01:22;4.30;;;2.10;;
32407;SDS011;18869;55.970;37.502;2022-09-09T13:03:51;1.83;;;1.50;;
32407;SDS011;18869;55.970;37.502;2022-09-09T13:06:20;1.77;;;1.67;;
32407;SDS011;18869;55.970;37.502;2022-09-09T13:08:51;1.20;;;1.10;;
32407;SDS011;18869;55.970;37.502;2022-09-09T13:11:20;1.93;;;1.33;;
32407;SDS011;18869;55.970;37.502;2022-09-09T13:13:52;1.50;;;1.40;;
32407;SDS011;18869;55.970;37.502;2022-09-09T13:16:23;2.13;;;1.70;;
32407;SDS011;18869;55.970;37.502;2022-09-09T13:18:57;2.77;;;2.43;;
32407;SDS011;18869;55.970;37.502;2022-09-09T13:21:33;5.43;;;2.77;;
32407;SDS011;18869;55.970;37.502;2022-09-09T13:24:22;3.27;;;2.03;;
32407;SDS011;18869;55.970;37.502;2022-09-09T13:26:54;1.43;;;1.33;;
32407;SDS011;18869;55.970;37.502;2022-09-09T13:29:23;1.60;;;1.50;;
32407;SDS011;18869;55.970;37.502;2022-09-09T13:31:53;1.70;;;1.60;;
32407;SDS011;18869;55.970;37.502;2022-09-09T13:34:27;2.43;;;1.90;;
32407;SDS011;18869;55.970;37.502;2022-09-09T13:36:58;2.97;;;1.53;;
32407;SDS011;18869;55.970;37.502;2022-09-09T13:39:30;1.67;;;1.33;;
32407;SDS011;18869;55.970;37.502;2022-09-09T13:41:58;3.27;;;1.23;;
32407;SDS011;18869;55.970;37.502;2022-09-09T13:44:25;1.10;;;1.10;;
32407;SDS011;18869;55.970;37.502;2022-09-09T13:46:59;1.30;;;1.20;;
32407;SDS011;18869;55.970;37.502;2022-09-09T13:49:28;1.27;;;1.20;;
32407;SDS011;18869;55.970;37.502;2022-09-09T13:52:04;3.07;;;1.80;;
32407;SDS011;18869;55.970;37.502;2022-09-09T13:54:34;1.77;;;1.67;;
32407;SDS011;18869;55.970;37.502;2022-09-09T13:57:02;1.27;;;1.17;;
32407;SDS011;18869;55.970;37.502;2022-09-09T13:59:30;1.33;;;1.23;;
32407;SDS011;18869;55.970;37.502;2022-09-09T14:01:58;2.40;;;1.33;;
32407;SDS011;18869;55.970;37.502;2022-09-09T14:04:27;1.50;;;1.40;;
32407;SDS011;18869;55.970;37.502;2022-09-09T14:06:56;1.63;;;1.43;;
32407;SDS011;18869;55.970;37.502;2022-09-09T14:09:26;2.20;;;2.10;;
32407;SDS011;18869;55.970;37.502;2022-09-09T14:11:55;3.40;;;3.10;;
32407;SDS011;18869;55.970;37.502;2022-09-09T14:14:23;4.70;;;3.27;;
32407;SDS011;18869;55.970;37.502;2022-09-09T14:16:51;5.60;;;4.37;;
32407;SDS011;18869;55.970;37.502;2022-09-09T14:19:19;5.33;;;4.60;;
32407;SDS011;18869;55.970;37.502;2022-09-09T14:21:46;5.47;;;4.70;;
32407;SDS011;18869;55.970;37.502;2022-09-09T14:24:14;4.10;;;3.50;;
32407;SDS011;18869;55.970;37.502;2022-09-09T14:26:42;4.70;;;2.77;;
32407;SDS011;18869;55.970;37.502;2022-09-09T14:29:11;2.57;;;2.37;;
32407;SDS011;18869;55.970;37.502;2022-09-09T14:31:42;3.73;;;2.40;;
32407;SDS011;18869;55.970;37.502;2022-09-09T14:34:10;3.17;;;1.90;;
32407;SDS011;18869;55.970;37.502;2022-09-09T14:36:37;2.23;;;2.00;;
32407;SDS011;18869;55.970;37.502;2022-09-09T14:39:06;2.03;;;1.80;;
32407;SDS011;18869;55.970;37.502;2022-09-09T14:41:34;2.13;;;1.97;;
32407;SDS011;18869;55.970;37.502;2022-09-09T14:44:01;2.37;;;2.20;;
32407;SDS011;18869;55.970;37.502;2022-09-09T14:46:30;2.00;;;1.80;;
32407;SDS011;18869;55.970;37.502;2022-09-09T14:48:59;2.00;;;1.90;;
32407;SDS011;18869;55.970;37.502;2022-09-09T14:51:26;2.77;;;1.80;;
32407;SDS011;18869;55.970;37.502;2022-09-09T14:53:55;2.83;;;2.60;;
32407;SDS011;18869;55.970;37.502;2022-09-09T14:56:24;4.70;;;2.80;;
32407;SDS011;18869;55.970;37.502;2022-09-09T14:58:52;2.40;;;2.20;;
32407;SDS011;18869;55.970;37.502;2022-09-09T15:01:21;3.77;;;3.27;;
32407;SDS011;18869;55.970;37.502;2022-09-09T15:03:51;4.33;;;2.40;;
32407;SDS011;18869;55.970;37.502;2022-09-09T15:06:20;2.77;;;2.57;;
32407;SDS011;18869;55.970;37.502;2022-09-09T15:08:49;2.57;;;2.37;;